• Join FlightAware (Why Join?)
  • Login
  • US Flag 
08:08PM EST


 

Airport Tracker/Info


-or-


 

Live Flight TrackerFlight Track Log ✈ SWA378 ✈ 12-Jul-2014 ✈ KLAX - KDEN

Flight Track Log - Related Links

Times and Time Zones

All times are in EDT time to prevent confusion due to time zone crossing. See the SWA378 flight status page for this flight to view local times or setup timezone preferences in your user account.

Time Position Orientation Groundspeed Altitude Reporting Facility
EDT Latitude Longitude Course Direction KTS MPH feet Rate Location/Type
11:20PM 33.9375 -118.5228 263° West 196 226 3,100  Level Los Angeles Center
11:21PM 33.9067 -118.5892 241° Southwest 242 278 5,700 2,508 Climbing Los Angeles Center
11:22PM 33.8864 -118.5197 109° East 269 310 8,200 2,390 Climbing Los Angeles Center
11:23PM 33.9242 -118.4500 57° Northeast 270 311 10,600 2,195 Climbing Los Angeles Center
11:24PM 33.9761 -118.3594 55° Northeast 326 375 12,700 2,361 Climbing Los Angeles Center
11:25PM 34.0294 -118.2642 56° Northeast 341 392 15,400 2,390 Climbing Los Angeles Center
11:26PM 34.0839 -118.1672 56° Northeast 342 394 17,600 2,244 Climbing Los Angeles Center
11:27PM 34.1408 -118.0669 56° Northeast 358 412 20,000 2,049 Climbing Los Angeles Center
11:28PM 34.1972 -117.9653 56° Northeast 360 414 21,800 1,902 Climbing Los Angeles Center
11:29PM 34.2694 -117.8386 55° Northeast 381 438 23,900 1,770 Climbing Los Angeles Center
11:30PM 34.3300 -117.7286 56° Northeast 391 450 25,400 1,415 Climbing Los Angeles Center
11:32PM 34.3928 -117.6167 56° Northeast 399 459 26,800 1,317 Climbing Los Angeles Center
11:33PM 34.4608 -117.4925 56° Northeast 418 481 28,100 1,180 Climbing Los Angeles Center
11:34PM 34.5267 -117.3736 56° Northeast 425 489 29,200 1,024 Climbing Los Angeles Center
11:35PM 34.5942 -117.2508 56° Northeast 438 504 30,200 1,122 Climbing Los Angeles Center
11:36PM 34.6619 -117.1267 56° Northeast 445 512 31,500 1,377 Climbing Los Angeles Center
11:37PM 34.7292 -117.0025 57° Northeast 444 511 33,000 1,317 Climbing Los Angeles Center
11:38PM 34.7953 -116.8814 56° Northeast 437 503 34,200 1,220 Climbing Los Angeles Center
11:39PM 34.8617 -116.7586 57° Northeast 436 502 35,500 1,180 Climbing Los Angeles Center
11:40PM 34.9272 -116.6403 56° Northeast 429 494 36,600 732 Climbing Los Angeles Center
11:41PM 35.0167 -116.5058 51° Northeast 430 495 37,000 195 Climbing Los Angeles Center
11:42PM 35.1017 -116.4006 45° Northeast 434 499 37,000  Level Los Angeles Center
11:43PM 35.1864 -116.2944 46° Northeast 434 499 37,000  Level Los Angeles Center
11:44PM 35.2703 -116.1894 46° Northeast 435 501 37,000  Level Los Angeles Center
11:45PM 35.3544 -116.0814 46° Northeast 436 502 37,000  Level Los Angeles Center
11:46PM 35.4400 -115.9744 46° Northeast 439 505 37,000  Level Los Angeles Center
11:47PM 35.5289 -115.8633 45° Northeast 441 507 37,000  Level Los Angeles Center
11:48PM 35.6150 -115.7547 46° Northeast 443 510 37,000  Level Los Angeles Center
11:49PM 35.7167 -115.6242 46° Northeast 444 511 37,000  Level Los Angeles Center
11:50PM 35.8019 -115.5158 46° Northeast 445 512 37,000  Level Los Angeles Center
11:51PM 35.8833 -115.4122 46° Northeast 431 496 37,000  Level Los Angeles Center
11:52PM 35.9667 -115.3050 46° Northeast 431 496 37,000  Level Los Angeles Center
11:53PM 36.0492 -115.1983 46° Northeast 431 496 37,000  Level Los Angeles Center
11:54PM 36.1069 -115.0711 61° Northeast 432 497 37,000  Level Los Angeles Center
11:55PM 36.1486 -114.9336 69° East 432 497 37,000  Level Los Angeles Center
11:56PM 36.1981 -114.7694 69° East 429 494 37,000  Level Los Angeles Center
11:57PM 36.2406 -114.6331 69° East 429 494 37,000  Level Los Angeles Center
11:58PM 36.2828 -114.4950 69° East 429 494 37,000  Level Los Angeles Center
11:59PM 36.3239 -114.3592 69° East 427 491 37,000  Level Los Angeles Center
12:00AM 36.3672 -114.2222 69° East 427 491 37,000  Level Los Angeles Center
12:01AM 36.4156 -114.0886 66° East 427 491 37,000  Level Los Angeles Center
12:02AM 36.4631 -113.9533 66° East 427 491 37,000  Level Los Angeles Center
12:03AM 36.5108 -113.8128 67° East 426 490 37,000  Level Los Angeles Center
12:04AM 36.5575 -113.6794 66° East 426 490 37,000  Level Los Angeles Center
12:05AM 36.6044 -113.5444 67° East 426 490 37,000  Level Los Angeles Center
12:06AM 36.6589 -113.3847 67° East 424 488 37,000  Level Los Angeles Center
12:07AM 36.7050 -113.2519 67° East 422 486 37,000  Level Los Angeles Center
12:08AM 36.7503 -113.1181 67° East 421 484 37,000  Level Los Angeles Center
12:09AM 36.7953 -112.9850 67° East 421 484 37,000  Level Los Angeles Center
12:10AM 36.8403 -112.8517 67° East 421 484 37,000  Level Los Angeles Center
12:11AM 36.8844 -112.7183 67° East 421 484 37,000  Level Los Angeles Center
12:12AM 36.9297 -112.5831 67° East 421 484 37,000  Level Los Angeles Center
12:13AM 36.9822 -112.4228 68° East 421 484 37,000  Level Los Angeles Center
12:14AM 37.0269 -112.2906 67° East 421 484 37,000  Level Los Angeles Center
12:16AM 37.0703 -112.1578 68° East 418 481 37,000  Level Los Angeles Center
12:17AM 37.1142 -112.0225 68° East 418 481 37,000  Level Los Angeles Center
12:18AM 37.1581 -111.8886 68° East 419 482 37,000  Level Los Angeles Center
12:18AM 37.1856 -111.8072 67° East 421 484 37,000  Level Denver Center
12:19AM 37.2308 -111.6731 67° East 420 483 37,000  Level Denver Center
12:20AM 37.2769 -111.5392 67° East 420 483 37,000  Level Denver Center
12:21AM 37.3211 -111.4050 67° East 420 483 37,000  Level Denver Center
12:22AM 37.3664 -111.2703 67° East 420 483 37,000  Level Denver Center
12:23AM 37.4117 -111.1358 67° East 420 483 37,000  Level Denver Center
12:24AM 37.4575 -111.0000 67° East 421 484 37,000  Level Denver Center
12:25AM 37.5031 -110.8642 67° East 421 484 37,000  Level Denver Center
12:26AM 37.5575 -110.6983 67° East 424 488 37,000  Level Denver Center
12:27AM 37.6039 -110.5589 67° East 428 493 37,000  Level Denver Center
12:28AM 37.6456 -110.4325 67° East 432 497 37,000  Level Denver Center
12:29AM 37.6978 -110.2717 68° East 438 504 37,000  Level Denver Center
12:30AM 37.7417 -110.1353 68° East 438 504 37,000  Level Denver Center
12:31AM 37.7861 -109.9983 68° East 439 505 37,000  Level Denver Center
12:32AM 37.8378 -109.8369 68° East 439 505 37,000  Level Denver Center
12:33AM 37.8828 -109.6983 68° East 441 507 37,000  Level Denver Center
12:34AM 37.9272 -109.5600 68° East 442 509 37,000  Level Denver Center
12:35AM 37.9786 -109.3989 68° East 442 509 37,000  Level Denver Center
12:36AM 38.0219 -109.2589 69° East 443 510 37,000  Level Denver Center
12:37AM 38.0667 -109.1192 68° East 444 511 37,000  Level Denver Center
12:38AM 38.1156 -108.9561 69° East 444 511 37,000  Level Denver Center
12:39AM 38.1592 -108.8181 68° East 443 510 37,000  Level Denver Center
12:40AM 38.2017 -108.6789 69° East 441 507 37,000  Level Denver Center
12:41AM 38.2522 -108.5164 68° East 442 509 37,000  Level Denver Center
12:42AM 38.2958 -108.3756 68° East 442 509 37,000  Level Denver Center
12:43AM 38.3400 -108.2264 69° East 444 511 37,000  Level Denver Center
12:44AM 38.3878 -108.0714 68° East 443 510 37,000  Level Denver Center
12:45AM 38.4314 -107.9264 69° East 441 507 37,000  Level Denver Center
12:46AM 38.4744 -107.7792 69° East 443 510 37,000  Level Denver Center
12:47AM 38.5194 -107.6289 69° East 451 519 37,000  Level Denver Center
12:48AM 38.5619 -107.4872 69° East 451 519 37,000  Level Denver Center
12:50AM 38.6050 -107.3394 70° East 450 518 37,000  Level Denver Center
12:51AM 38.6475 -107.1925 70° East 448 516 37,000  Level Denver Center
12:52AM 38.6911 -107.0450 69° East 446 513 37,000  Level Denver Center
12:53AM 38.7347 -106.8947 70° East 450 518 37,000  Level Denver Center
12:54AM 38.7833 -106.7517 66° East 443 510 37,000  Level Denver Center
12:55AM 38.8311 -106.6103 67° East 437 503 37,000 -49 Level Denver Center
12:56AM 38.8769 -106.4700 67° East 433 498 36,900 -1,488 Descending Denver Center
12:57AM 38.9267 -106.3200 67° East 456 525 34,000 -3,273 Descending Denver Center
12:58AM 38.9867 -106.1403 67° East 460 529 30,300 -3,174 Descending Denver Center
12:59AM 39.0361 -105.9911 67° East 459 528 27,600 -2,529 Descending Denver Center
01:00AM 39.0825 -105.8494 67° East 438 504 25,200 -2,182 Descending Denver Center
01:01AM 39.1194 -105.7319 68° East 417 480 23,200 -2,231 Descending Denver Center
01:02AM 39.1669 -105.5822 68° East 398 458 20,700 -2,281 Descending Denver Center
01:03AM 39.2083 -105.4583 67° East 377 434 18,600 -1,700 Descending Denver Center
01:04AM 39.2467 -105.3408 67° East 360 414 17,300 -744 Descending Denver Center
01:05AM 39.3042 -105.2581 48° Northeast 310 357 17,100 -149 Descending Denver Center
01:06AM 39.3753 -105.1869 38° Northeast 324 373 17,000 -50 Descending Denver Center
01:07AM 39.4500 -105.1147 37° Northeast 334 384 17,000  Level Denver Center
01:08AM 39.5250 -105.0428 36° Northeast 313 360 17,000  Level Denver Center
01:09AM 39.5906 -104.9772 38° Northeast 298 343 17,000 -893 Level Denver Center
01:10AM 39.6622 -104.9081 37° Northeast 327 376 15,200 -1,850 Descending Denver Center
01:11AM 39.7450 -104.8414 32° Northeast 354 407 13,300 -1,500 Descending Denver Center
01:12AM 39.8869 -104.8408 360° North 308 354 11,200 -969 Descending Denver Center
01:13AM 39.9617 -104.8392 North 266 306 10,700 -793 Descending Denver Center
01:14AM 40.0269 -104.8214 12° North 242 278 9,600 -1,150 Descending Denver Center
01:15AM 40.0578 -104.7583 57° Northeast 248 285 8,400 -942 Descending Denver Center
01:16AM 40.0125 -104.7108 141° Southeast 214 246 7,700 -793 Descending Denver Center
01:17AM 39.9719 -104.6847 154° Southeast 165 190 6,800 -850 Descending Denver Center
01:18AM 39.9286 -104.6869 182° South 159 183 6,000 -694 Descending Denver Center
01:19AM 39.8925 -104.6869 180° South 146 168 5,400 -590 Descending Denver Center
01:21AM 39.8617 -104.6732 159° South  Level Estimated
01:28AM 39.8617 -104.6732 159° South  Level Estimated
01:29AM 39.8617 -104.6732 159° South  Level Estimated
01:30AM 39.8617 -104.6732 159° South  Level Estimated